sensor_id;sensor_type;location;lat;lon;timestamp;P1;durP1;ratioP1;P2;durP2;ratioP2
38879;SDS011;25887;30.194;-97.880;2023-07-20T00:00:05;10.00;;;2.15;;
38879;SDS011;25887;30.194;-97.880;2023-07-20T00:02:32;8.13;;;1.90;;
38879;SDS011;25887;30.194;-97.880;2023-07-20T00:04:58;4.45;;;1.75;;
38879;SDS011;25887;30.194;-97.880;2023-07-20T00:07:32;4.85;;;1.67;;
38879;SDS011;25887;30.194;-97.880;2023-07-20T00:13:45;9.77;;;1.63;;
38879;SDS011;25887;30.194;-97.880;2023-07-20T00:16:11;5.65;;;1.67;;
38879;SDS011;25887;30.194;-97.880;2023-07-20T00:18:37;10.80;;;2.10;;
38879;SDS011;25887;30.194;-97.880;2023-07-20T00:21:04;5.65;;;1.95;;
38879;SDS011;25887;30.194;-97.880;2023-07-20T00:23:30;8.98;;;1.67;;
38879;SDS011;25887;30.194;-97.880;2023-07-20T00:25:56;9.18;;;2.03;;
38879;SDS011;25887;30.194;-97.880;2023-07-20T00:28:23;8.38;;;1.75;;
38879;SDS011;25887;30.194;-97.880;2023-07-20T00:30:49;6.60;;;2.15;;
38879;SDS011;25887;30.194;-97.880;2023-07-20T00:33:16;8.48;;;1.70;;
38879;SDS011;25887;30.194;-97.880;2023-07-20T00:35:43;11.02;;;2.10;;
38879;SDS011;25887;30.194;-97.880;2023-07-20T00:38:10;8.32;;;2.20;;
38879;SDS011;25887;30.194;-97.880;2023-07-20T00:43:58;9.00;;;1.80;;
38879;SDS011;25887;30.194;-97.880;2023-07-20T00:46:27;5.45;;;1.90;;
38879;SDS011;25887;30.194;-97.880;2023-07-20T00:48:54;14.50;;;1.80;;
38879;SDS011;25887;30.194;-97.880;2023-07-20T00:51:21;6.57;;;2.40;;
38879;SDS011;25887;30.194;-97.880;2023-07-20T00:53:50;10.57;;;2.22;;
38879;SDS011;25887;30.194;-97.880;2023-07-20T00:56:32;8.43;;;1.73;;
38879;SDS011;25887;30.194;-97.880;2023-07-20T00:59:18;7.40;;;2.00;;
38879;SDS011;25887;30.194;-97.880;2023-07-20T01:01:56;12.02;;;2.28;;
38879;SDS011;25887;30.194;-97.880;2023-07-20T01:04:22;13.77;;;2.10;;
38879;SDS011;25887;30.194;-97.880;2023-07-20T01:12:40;6.32;;;1.80;;
38879;SDS011;25887;30.194;-97.880;2023-07-20T01:15:08;10.23;;;2.08;;
38879;SDS011;25887;30.194;-97.880;2023-07-20T01:17:35;11.98;;;2.78;;
38879;SDS011;25887;30.194;-97.880;2023-07-20T01:20:16;9.70;;;2.53;;
38879;SDS011;25887;30.194;-97.880;2023-07-20T01:26:51;8.27;;;2.22;;
38879;SDS011;25887;30.194;-97.880;2023-07-20T01:30:50;11.15;;;1.80;;
38879;SDS011;25887;30.194;-97.880;2023-07-20T01:33:08;9.98;;;2.05;;
38879;SDS011;25887;30.194;-97.880;2023-07-20T01:35:37;9.55;;;1.67;;
38879;SDS011;25887;30.194;-97.880;2023-07-20T01:38:07;7.95;;;1.92;;
38879;SDS011;25887;30.194;-97.880;2023-07-20T01:40:34;8.07;;;2.50;;
38879;SDS011;25887;30.194;-97.880;2023-07-20T01:43:02;12.65;;;2.45;;
38879;SDS011;25887;30.194;-97.880;2023-07-20T01:45:28;13.93;;;2.58;;
38879;SDS011;25887;30.194;-97.880;2023-07-20T01:47:54;8.52;;;1.63;;
38879;SDS011;25887;30.194;-97.880;2023-07-20T01:50:20;12.95;;;2.10;;
38879;SDS011;25887;30.194;-97.880;2023-07-20T01:52:49;7.40;;;2.10;;
38879;SDS011;25887;30.194;-97.880;2023-07-20T01:55:15;8.23;;;1.77;;
38879;SDS011;25887;30.194;-97.880;2023-07-20T01:57:41;12.82;;;2.00;;
38879;SDS011;25887;30.194;-97.880;2023-07-20T02:00:08;11.80;;;1.75;;
38879;SDS011;25887;30.194;-97.880;2023-07-20T02:02:35;9.65;;;2.42;;
38879;SDS011;25887;30.194;-97.880;2023-07-20T02:05:01;8.27;;;1.77;;
38879;SDS011;25887;30.194;-97.880;2023-07-20T02:07:28;5.85;;;1.65;;
38879;SDS011;25887;30.194;-97.880;2023-07-20T02:09:54;4.90;;;1.63;;
38879;SDS011;25887;30.194;-97.880;2023-07-20T02:12:20;11.60;;;2.47;;
38879;SDS011;25887;30.194;-97.880;2023-07-20T02:14:46;19.30;;;2.17;;
38879;SDS011;25887;30.194;-97.880;2023-07-20T02:17:13;9.38;;;2.35;;
38879;SDS011;25887;30.194;-97.880;2023-07-20T02:19:40;9.45;;;2.30;;
38879;SDS011;25887;30.194;-97.880;2023-07-20T02:22:08;8.48;;;2.20;;
38879;SDS011;25887;30.194;-97.880;2023-07-20T02:24:35;11.73;;;3.25;;
38879;SDS011;25887;30.194;-97.880;2023-07-20T02:27:01;12.77;;;1.63;;
38879;SDS011;25887;30.194;-97.880;2023-07-20T02:29:28;11.98;;;2.58;;
38879;SDS011;25887;30.194;-97.880;2023-07-20T02:31:56;9.68;;;2.30;;
38879;SDS011;25887;30.194;-97.880;2023-07-20T02:34:22;8.35;;;2.05;;
38879;SDS011;25887;30.194;-97.880;2023-07-20T02:36:49;7.00;;;1.77;;
38879;SDS011;25887;30.194;-97.880;2023-07-20T02:39:15;10.88;;;2.08;;
38879;SDS011;25887;30.194;-97.880;2023-07-20T02:41:41;7.53;;;2.33;;
38879;SDS011;25887;30.194;-97.880;2023-07-20T02:44:07;7.57;;;2.45;;
38879;SDS011;25887;30.194;-97.880;2023-07-20T02:46:34;9.38;;;2.22;;
38879;SDS011;25887;30.194;-97.880;2023-07-20T02:49:00;9.98;;;2.85;;
38879;SDS011;25887;30.194;-97.880;2023-07-20T02:51:26;10.70;;;2.60;;
38879;SDS011;25887;30.194;-97.880;2023-07-20T02:53:53;6.13;;;2.22;;
38879;SDS011;25887;30.194;-97.880;2023-07-20T02:56:19;13.20;;;2.63;;
38879;SDS011;25887;30.194;-97.880;2023-07-20T02:58:45;7.22;;;2.03;;
38879;SDS011;25887;30.194;-97.880;2023-07-20T03:01:11;7.63;;;1.77;;
38879;SDS011;25887;30.194;-97.880;2023-07-20T03:03:38;9.57;;;2.55;;
38879;SDS011;25887;30.194;-97.880;2023-07-20T03:06:05;15.80;;;2.55;;
38879;SDS011;25887;30.194;-97.880;2023-07-20T03:08:31;14.95;;;2.85;;
38879;SDS011;25887;30.194;-97.880;2023-07-20T03:10:57;8.40;;;2.38;;
38879;SDS011;25887;30.194;-97.880;2023-07-20T03:13:23;9.13;;;2.17;;
38879;SDS011;25887;30.194;-97.880;2023-07-20T03:15:51;14.55;;;2.60;;
38879;SDS011;25887;30.194;-97.880;2023-07-20T03:18:18;9.45;;;2.42;;
38879;SDS011;25887;30.194;-97.880;2023-07-20T03:20:44;19.73;;;3.38;;
38879;SDS011;25887;30.194;-97.880;2023-07-20T03:23:11;11.35;;;2.30;;
38879;SDS011;25887;30.194;-97.880;2023-07-20T03:25:37;10.82;;;2.22;;
38879;SDS011;25887;30.194;-97.880;2023-07-20T03:28:04;13.00;;;2.33;;
38879;SDS011;25887;30.194;-97.880;2023-07-20T03:30:32;13.18;;;2.45;;
38879;SDS011;25887;30.194;-97.880;2023-07-20T03:33:00;14.73;;;2.97;;
38879;SDS011;25887;30.194;-97.880;2023-07-20T03:35:26;11.57;;;2.30;;
38879;SDS011;25887;30.194;-97.880;2023-07-20T03:37:52;11.02;;;2.42;;
38879;SDS011;25887;30.194;-97.880;2023-07-20T03:40:18;10.13;;;1.98;;
38879;SDS011;25887;30.194;-97.880;2023-07-20T03:42:44;6.70;;;1.92;;
38879;SDS011;25887;30.194;-97.880;2023-07-20T03:45:10;9.55;;;2.78;;
38879;SDS011;25887;30.194;-97.880;2023-07-20T03:47:45;6.40;;;2.42;;
38879;SDS011;25887;30.194;-97.880;2023-07-20T03:50:13;10.90;;;2.67;;
38879;SDS011;25887;30.194;-97.880;2023-07-20T03:52:39;20.75;;;3.22;;
38879;SDS011;25887;30.194;-97.880;2023-07-20T03:55:06;15.40;;;2.75;;
38879;SDS011;25887;30.194;-97.880;2023-07-20T03:57:32;11.27;;;2.50;;
38879;SDS011;25887;30.194;-97.880;2023-07-20T03:59:58;10.52;;;2.50;;
38879;SDS011;25887;30.194;-97.880;2023-07-20T04:02:25;12.80;;;3.15;;
38879;SDS011;25887;30.194;-97.880;2023-07-20T04:04:51;18.02;;;2.40;;
38879;SDS011;25887;30.194;-97.880;2023-07-20T04:07:17;17.05;;;2.50;;
38879;SDS011;25887;30.194;-97.880;2023-07-20T04:09:43;17.67;;;2.88;;
38879;SDS011;25887;30.194;-97.880;2023-07-20T04:12:10;8.85;;;2.67;;
38879;SDS011;25887;30.194;-97.880;2023-07-20T04:14:36;15.35;;;2.83;;
38879;SDS011;25887;30.194;-97.880;2023-07-20T04:17:02;9.13;;;2.22;;
38879;SDS011;25887;30.194;-97.880;2023-07-20T04:19:29;10.98;;;2.42;;
38879;SDS011;25887;30.194;-97.880;2023-07-20T04:21:55;11.82;;;2.30;;
38879;SDS011;25887;30.194;-97.880;2023-07-20T04:24:21;12.40;;;2.45;;
38879;SDS011;25887;30.194;-97.880;2023-07-20T04:26:48;14.55;;;2.72;;
38879;SDS011;25887;30.194;-97.880;2023-07-20T04:29:14;14.85;;;1.98;;
38879;SDS011;25887;30.194;-97.880;2023-07-20T04:31:40;19.50;;;2.55;;
38879;SDS011;25887;30.194;-97.880;2023-07-20T04:34:06;7.97;;;2.55;;
38879;SDS011;25887;30.194;-97.880;2023-07-20T04:36:33;8.82;;;2.47;;
38879;SDS011;25887;30.194;-97.880;2023-07-20T04:38:59;16.33;;;3.60;;
38879;SDS011;25887;30.194;-97.880;2023-07-20T04:44:13;13.55;;;2.50;;
38879;SDS011;25887;30.194;-97.880;2023-07-20T04:46:39;6.40;;;2.42;;
38879;SDS011;25887;30.194;-97.880;2023-07-20T04:49:05;6.35;;;1.95;;
38879;SDS011;25887;30.194;-97.880;2023-07-20T04:51:32;9.63;;;2.20;;
38879;SDS011;25887;30.194;-97.880;2023-07-20T04:53:58;8.32;;;2.22;;
38879;SDS011;25887;30.194;-97.880;2023-07-20T04:56:25;20.27;;;3.33;;
38879;SDS011;25887;30.194;-97.880;2023-07-20T04:58:51;7.65;;;2.35;;
38879;SDS011;25887;30.194;-97.880;2023-07-20T05:01:17;10.68;;;2.40;;
38879;SDS011;25887;30.194;-97.880;2023-07-20T05:03:43;13.48;;;2.35;;
38879;SDS011;25887;30.194;-97.880;2023-07-20T05:06:09;17.38;;;2.95;;
38879;SDS011;25887;30.194;-97.880;2023-07-20T05:08:36;12.00;;;2.95;;
38879;SDS011;25887;30.194;-97.880;2023-07-20T05:11:02;9.85;;;2.60;;
38879;SDS011;25887;30.194;-97.880;2023-07-20T05:13:28;7.18;;;2.58;;
38879;SDS011;25887;30.194;-97.880;2023-07-20T05:15:54;13.98;;;2.45;;
38879;SDS011;25887;30.194;-97.880;2023-07-20T05:18:21;11.35;;;2.92;;
38879;SDS011;25887;30.194;-97.880;2023-07-20T05:20:47;9.95;;;2.42;;
38879;SDS011;25887;30.194;-97.880;2023-07-20T05:23:13;14.48;;;3.25;;
38879;SDS011;25887;30.194;-97.880;2023-07-20T05:25:40;24.58;;;3.67;;
38879;SDS011;25887;30.194;-97.880;2023-07-20T05:28:07;9.38;;;2.33;;
38879;SDS011;25887;30.194;-97.880;2023-07-20T05:30:33;8.20;;;2.47;;
38879;SDS011;25887;30.194;-97.880;2023-07-20T05:32:59;11.35;;;2.83;;
38879;SDS011;25887;30.194;-97.880;2023-07-20T05:35:26;12.30;;;2.72;;
38879;SDS011;25887;30.194;-97.880;2023-07-20T05:37:52;10.23;;;2.22;;
38879;SDS011;25887;30.194;-97.880;2023-07-20T05:40:18;14.98;;;3.15;;
38879;SDS011;25887;30.194;-97.880;2023-07-20T05:42:45;21.60;;;3.03;;
38879;SDS011;25887;30.194;-97.880;2023-07-20T05:45:13;13.38;;;3.10;;
38879;SDS011;25887;30.194;-97.880;2023-07-20T05:47:43;11.35;;;2.50;;
38879;SDS011;25887;30.194;-97.880;2023-07-20T05:50:10;10.27;;;2.42;;
38879;SDS011;25887;30.194;-97.880;2023-07-20T05:52:36;16.20;;;2.70;;
38879;SDS011;25887;30.194;-97.880;2023-07-20T05:55:04;13.43;;;3.17;;
38879;SDS011;25887;30.194;-97.880;2023-07-20T05:57:31;15.02;;;2.55;;
38879;SDS011;25887;30.194;-97.880;2023-07-20T05:59:57;10.85;;;2.33;;
38879;SDS011;25887;30.194;-97.880;2023-07-20T06:02:23;12.55;;;3.42;;
38879;SDS011;25887;30.194;-97.880;2023-07-20T06:04:49;16.77;;;3.10;;
38879;SDS011;25887;30.194;-97.880;2023-07-20T06:07:15;8.95;;;3.05;;
38879;SDS011;25887;30.194;-97.880;2023-07-20T06:09:42;11.02;;;2.75;;
38879;SDS011;25887;30.194;-97.880;2023-07-20T06:12:08;13.18;;;2.92;;
38879;SDS011;25887;30.194;-97.880;2023-07-20T06:14:34;10.65;;;3.17;;
38879;SDS011;25887;30.194;-97.880;2023-07-20T06:17:02;7.15;;;2.42;;
38879;SDS011;25887;30.194;-97.880;2023-07-20T06:19:29;9.23;;;2.53;;
38879;SDS011;25887;30.194;-97.880;2023-07-20T06:21:55;12.43;;;2.70;;
38879;SDS011;25887;30.194;-97.880;2023-07-20T06:24:21;16.55;;;2.78;;
38879;SDS011;25887;30.194;-97.880;2023-07-20T06:26:47;13.48;;;3.05;;
38879;SDS011;25887;30.194;-97.880;2023-07-20T06:29:14;7.10;;;2.40;;
38879;SDS011;25887;30.194;-97.880;2023-07-20T06:31:40;14.43;;;3.33;;
38879;SDS011;25887;30.194;-97.880;2023-07-20T06:34:06;8.82;;;2.85;;
38879;SDS011;25887;30.194;-97.880;2023-07-20T06:36:32;11.48;;;2.88;;
38879;SDS011;25887;30.194;-97.880;2023-07-20T06:38:58;9.88;;;3.00;;
38879;SDS011;25887;30.194;-97.880;2023-07-20T06:41:25;12.82;;;2.53;;
38879;SDS011;25887;30.194;-97.880;2023-07-20T06:43:51;13.77;;;3.05;;
38879;SDS011;25887;30.194;-97.880;2023-07-20T06:46:23;15.52;;;3.25;;
38879;SDS011;25887;30.194;-97.880;2023-07-20T06:49:01;13.73;;;3.40;;
38879;SDS011;25887;30.194;-97.880;2023-07-20T06:51:27;9.82;;;2.67;;
38879;SDS011;25887;30.194;-97.880;2023-07-20T06:53:54;12.75;;;3.47;;
38879;SDS011;25887;30.194;-97.880;2023-07-20T06:56:20;13.70;;;3.33;;
38879;SDS011;25887;30.194;-97.880;2023-07-20T06:58:46;14.43;;;3.17;;
38879;SDS011;25887;30.194;-97.880;2023-07-20T07:01:13;20.80;;;3.35;;
38879;SDS011;25887;30.194;-97.880;2023-07-20T07:03:40;11.05;;;2.95;;
38879;SDS011;25887;30.194;-97.880;2023-07-20T07:06:06;7.88;;;3.00;;
38879;SDS011;25887;30.194;-97.880;2023-07-20T07:08:32;13.65;;;2.85;;
38879;SDS011;25887;30.194;-97.880;2023-07-20T07:10:58;15.98;;;3.00;;
38879;SDS011;25887;30.194;-97.880;2023-07-20T07:13:25;9.65;;;2.72;;
38879;SDS011;25887;30.194;-97.880;2023-07-20T07:15:51;13.60;;;3.33;;
38879;SDS011;25887;30.194;-97.880;2023-07-20T07:18:17;12.13;;;3.40;;
38879;SDS011;25887;30.194;-97.880;2023-07-20T07:20:52;10.75;;;3.40;;
38879;SDS011;25887;30.194;-97.880;2023-07-20T07:23:18;16.05;;;2.88;;
38879;SDS011;25887;30.194;-97.880;2023-07-20T07:25:45;10.13;;;3.10;;
38879;SDS011;25887;30.194;-97.880;2023-07-20T07:28:11;14.23;;;2.80;;
38879;SDS011;25887;30.194;-97.880;2023-07-20T07:30:38;9.10;;;3.50;;
38879;SDS011;25887;30.194;-97.880;2023-07-20T07:33:04;14.73;;;2.90;;
38879;SDS011;25887;30.194;-97.880;2023-07-20T07:35:30;12.90;;;3.40;;
38879;SDS011;25887;30.194;-97.880;2023-07-20T07:37:57;15.20;;;2.45;;
38879;SDS011;25887;30.194;-97.880;2023-07-20T07:40:23;13.27;;;3.20;;
38879;SDS011;25887;30.194;-97.880;2023-07-20T07:42:49;12.10;;;2.95;;
38879;SDS011;25887;30.194;-97.880;2023-07-20T07:45:15;12.93;;;3.17;;
38879;SDS011;25887;30.194;-97.880;2023-07-20T07:47:42;14.27;;;2.78;;
38879;SDS011;25887;30.194;-97.880;2023-07-20T07:50:09;13.52;;;3.17;;
38879;SDS011;25887;30.194;-97.880;2023-07-20T07:52:35;20.70;;;3.45;;
38879;SDS011;25887;30.194;-97.880;2023-07-20T07:55:02;11.55;;;3.72;;
38879;SDS011;25887;30.194;-97.880;2023-07-20T07:57:29;12.02;;;3.10;;
38879;SDS011;25887;30.194;-97.880;2023-07-20T07:59:55;8.98;;;3.33;;
38879;SDS011;25887;30.194;-97.880;2023-07-20T08:02:21;7.70;;;3.05;;
38879;SDS011;25887;30.194;-97.880;2023-07-20T08:04:48;13.35;;;3.00;;
38879;SDS011;25887;30.194;-97.880;2023-07-20T08:07:16;12.68;;;3.63;;
38879;SDS011;25887;30.194;-97.880;2023-07-20T08:09:42;10.88;;;3.75;;
38879;SDS011;25887;30.194;-97.880;2023-07-20T08:12:08;10.75;;;3.60;;
38879;SDS011;25887;30.194;-97.880;2023-07-20T08:14:35;12.93;;;3.20;;
38879;SDS011;25887;30.194;-97.880;2023-07-20T08:17:01;8.40;;;2.90;;
38879;SDS011;25887;30.194;-97.880;2023-07-20T08:19:27;11.32;;;2.80;;
38879;SDS011;25887;30.194;-97.880;2023-07-20T08:21:54;16.35;;;3.05;;
38879;SDS011;25887;30.194;-97.880;2023-07-20T08:24:20;24.05;;;3.60;;
38879;SDS011;25887;30.194;-97.880;2023-07-20T08:26:46;13.73;;;2.95;;
38879;SDS011;25887;30.194;-97.880;2023-07-20T08:29:12;17.60;;;3.03;;
38879;SDS011;25887;30.194;-97.880;2023-07-20T08:31:39;11.68;;;2.88;;
38879;SDS011;25887;30.194;-97.880;2023-07-20T08:34:05;11.93;;;3.10;;
38879;SDS011;25887;30.194;-97.880;2023-07-20T08:36:31;13.18;;;2.67;;
38879;SDS011;25887;30.194;-97.880;2023-07-20T08:38:58;14.43;;;2.83;;
38879;SDS011;25887;30.194;-97.880;2023-07-20T08:41:26;8.80;;;3.05;;
38879;SDS011;25887;30.194;-97.880;2023-07-20T08:43:53;9.38;;;3.10;;
38879;SDS011;25887;30.194;-97.880;2023-07-20T08:46:22;16.25;;;3.92;;
38879;SDS011;25887;30.194;-97.880;2023-07-20T08:48:54;14.88;;;3.00;;
38879;SDS011;25887;30.194;-97.880;2023-07-20T08:51:22;11.43;;;3.20;;
38879;SDS011;25887;30.194;-97.880;2023-07-20T08:53:49;11.55;;;3.50;;
38879;SDS011;25887;30.194;-97.880;2023-07-20T08:56:17;11.18;;;3.47;;
38879;SDS011;25887;30.194;-97.880;2023-07-20T08:58:45;11.15;;;3.88;;
38879;SDS011;25887;30.194;-97.880;2023-07-20T09:01:12;16.27;;;3.88;;
38879;SDS011;25887;30.194;-97.880;2023-07-20T09:03:39;10.55;;;3.85;;
38879;SDS011;25887;30.194;-97.880;2023-07-20T09:06:08;9.95;;;3.45;;
38879;SDS011;25887;30.194;-97.880;2023-07-20T09:08:37;11.70;;;3.90;;
38879;SDS011;25887;30.194;-97.880;2023-07-20T09:11:04;16.85;;;3.53;;
38879;SDS011;25887;30.194;-97.880;2023-07-20T09:13:32;12.10;;;3.20;;
38879;SDS011;25887;30.194;-97.880;2023-07-20T09:15:59;15.93;;;3.72;;
38879;SDS011;25887;30.194;-97.880;2023-07-20T09:18:32;12.68;;;2.75;;
38879;SDS011;25887;30.194;-97.880;2023-07-20T09:21:03;12.20;;;2.92;;
38879;SDS011;25887;30.194;-97.880;2023-07-20T09:26:22;21.63;;;3.83;;
38879;SDS011;25887;30.194;-97.880;2023-07-20T09:28:49;13.68;;;3.60;;
38879;SDS011;25887;30.194;-97.880;2023-07-20T09:31:20;10.55;;;3.55;;
38879;SDS011;25887;30.194;-97.880;2023-07-20T09:33:47;10.93;;;3.40;;
38879;SDS011;25887;30.194;-97.880;2023-07-20T09:36:15;13.27;;;3.20;;
38879;SDS011;25887;30.194;-97.880;2023-07-20T09:38:41;15.57;;;3.80;;
38879;SDS011;25887;30.194;-97.880;2023-07-20T09:41:14;12.98;;;3.28;;
38879;SDS011;25887;30.194;-97.880;2023-07-20T09:43:41;10.63;;;3.75;;
38879;SDS011;25887;30.194;-97.880;2023-07-20T09:46:08;12.20;;;3.58;;
38879;SDS011;25887;30.194;-97.880;2023-07-20T09:48:34;12.75;;;3.97;;
38879;SDS011;25887;30.194;-97.880;2023-07-20T09:51:00;13.20;;;3.60;;
38879;SDS011;25887;30.194;-97.880;2023-07-20T09:53:27;18.42;;;3.67;;
38879;SDS011;25887;30.194;-97.880;2023-07-20T09:55:55;12.02;;;3.33;;
38879;SDS011;25887;30.194;-97.880;2023-07-20T09:58:23;17.60;;;3.38;;
38879;SDS011;25887;30.194;-97.880;2023-07-20T10:00:51;11.18;;;3.55;;
38879;SDS011;25887;30.194;-97.880;2023-07-20T10:03:21;15.23;;;3.55;;
38879;SDS011;25887;30.194;-97.880;2023-07-20T10:05:54;13.32;;;3.55;;
38879;SDS011;25887;30.194;-97.880;2023-07-20T10:08:26;10.50;;;3.47;;
38879;SDS011;25887;30.194;-97.880;2023-07-20T10:10:54;11.98;;;3.42;;
38879;SDS011;25887;30.194;-97.880;2023-07-20T10:13:26;14.82;;;3.15;;
38879;SDS011;25887;30.194;-97.880;2023-07-20T10:15:54;16.25;;;3.20;;
38879;SDS011;25887;30.194;-97.880;2023-07-20T10:18:49;10.57;;;3.47;;
38879;SDS011;25887;30.194;-97.880;2023-07-20T10:21:29;17.52;;;3.67;;
38879;SDS011;25887;30.194;-97.880;2023-07-20T10:26:55;15.30;;;3.28;;
38879;SDS011;25887;30.194;-97.880;2023-07-20T10:29:22;10.15;;;3.63;;
38879;SDS011;25887;30.194;-97.880;2023-07-20T10:31:49;10.27;;;3.35;;
38879;SDS011;25887;30.194;-97.880;2023-07-20T10:34:16;18.67;;;4.10;;
38879;SDS011;25887;30.194;-97.880;2023-07-20T10:36:46;14.27;;;3.85;;
38879;SDS011;25887;30.194;-97.880;2023-07-20T10:39:22;11.25;;;3.47;;
38879;SDS011;25887;30.194;-97.880;2023-07-20T10:42:08;15.60;;;3.92;;
38879;SDS011;25887;30.194;-97.880;2023-07-20T10:44:41;10.07;;;3.55;;
38879;SDS011;25887;30.194;-97.880;2023-07-20T10:47:12;14.40;;;3.70;;
38879;SDS011;25887;30.194;-97.880;2023-07-20T10:52:23;18.73;;;4.22;;
38879;SDS011;25887;30.194;-97.880;2023-07-20T10:54:49;11.48;;;3.47;;
38879;SDS011;25887;30.194;-97.880;2023-07-20T10:57:49;9.55;;;3.53;;
38879;SDS011;25887;30.194;-97.880;2023-07-20T11:00:09;21.20;;;3.80;;
38879;SDS011;25887;30.194;-97.880;2023-07-20T11:02:58;16.13;;;3.28;;
38879;SDS011;25887;30.194;-97.880;2023-07-20T11:08:02;19.92;;;4.55;;
38879;SDS011;25887;30.194;-97.880;2023-07-20T11:10:50;11.60;;;3.67;;
38879;SDS011;25887;30.194;-97.880;2023-07-20T11:13:55;9.65;;;3.63;;
38879;SDS011;25887;30.194;-97.880;2023-07-20T11:19:21;12.23;;;3.20;;
38879;SDS011;25887;30.194;-97.880;2023-07-20T11:21:53;10.48;;;3.20;;
38879;SDS011;25887;30.194;-97.880;2023-07-20T11:24:21;10.20;;;3.47;;
38879;SDS011;25887;30.194;-97.880;2023-07-20T11:26:54;11.52;;;3.30;;
38879;SDS011;25887;30.194;-97.880;2023-07-20T11:29:21;22.08;;;3.72;;
38879;SDS011;25887;30.194;-97.880;2023-07-20T11:31:50;13.80;;;3.47;;
38879;SDS011;25887;30.194;-97.880;2023-07-20T11:34:17;17.83;;;4.20;;
38879;SDS011;25887;30.194;-97.880;2023-07-20T11:36:46;14.18;;;3.53;;
38879;SDS011;25887;30.194;-97.880;2023-07-20T11:39:17;12.15;;;3.60;;
38879;SDS011;25887;30.194;-97.880;2023-07-20T11:41:47;10.00;;;3.55;;
38879;SDS011;25887;30.194;-97.880;2023-07-20T11:44:18;7.32;;;3.25;;
38879;SDS011;25887;30.194;-97.880;2023-07-20T11:47:04;9.13;;;3.93;;
38879;SDS011;25887;30.194;-97.880;2023-07-20T11:49:39;12.32;;;4.25;;
38879;SDS011;25887;30.194;-97.880;2023-07-20T11:52:11;16.63;;;3.80;;
38879;SDS011;25887;30.194;-97.880;2023-07-20T11:54:41;16.48;;;4.28;;
38879;SDS011;25887;30.194;-97.880;2023-07-20T11:57:15;28.52;;;4.13;;
38879;SDS011;25887;30.194;-97.880;2023-07-20T12:02:27;13.32;;;3.55;;
38879;SDS011;25887;30.194;-97.880;2023-07-20T12:04:53;10.40;;;4.18;;
38879;SDS011;25887;30.194;-97.880;2023-07-20T12:07:21;12.15;;;3.28;;
38879;SDS011;25887;30.194;-97.880;2023-07-20T12:12:33;14.57;;;3.58;;
38879;SDS011;25887;30.194;-97.880;2023-07-20T12:17:59;12.80;;;3.90;;
38879;SDS011;25887;30.194;-97.880;2023-07-20T12:20:27;9.93;;;3.58;;
38879;SDS011;25887;30.194;-97.880;2023-07-20T12:22:58;11.85;;;3.25;;
38879;SDS011;25887;30.194;-97.880;2023-07-20T12:25:44;14.82;;;3.97;;
38879;SDS011;25887;30.194;-97.880;2023-07-20T12:28:12;7.63;;;3.63;;
38879;SDS011;25887;30.194;-97.880;2023-07-20T12:30:43;8.85;;;3.63;;
38879;SDS011;25887;30.194;-97.880;2023-07-20T12:33:10;8.57;;;3.97;;
38879;SDS011;25887;30.194;-97.880;2023-07-20T12:35:41;17.10;;;3.85;;
38879;SDS011;25887;30.194;-97.880;2023-07-20T12:38:08;19.20;;;4.57;;
38879;SDS011;25887;30.194;-97.880;2023-07-20T12:40:34;15.75;;;4.50;;
38879;SDS011;25887;30.194;-97.880;2023-07-20T12:43:01;12.32;;;4.60;;
38879;SDS011;25887;30.194;-97.880;2023-07-20T12:45:27;13.63;;;3.65;;
38879;SDS011;25887;30.194;-97.880;2023-07-20T12:47:54;11.65;;;3.50;;
38879;SDS011;25887;30.194;-97.880;2023-07-20T12:50:20;12.75;;;3.53;;
38879;SDS011;25887;30.194;-97.880;2023-07-20T12:52:46;16.25;;;4.30;;
38879;SDS011;25887;30.194;-97.880;2023-07-20T12:55:12;14.57;;;4.10;;
38879;SDS011;25887;30.194;-97.880;2023-07-20T12:57:40;15.63;;;3.90;;
38879;SDS011;25887;30.194;-97.880;2023-07-20T13:00:09;13.55;;;3.60;;
38879;SDS011;25887;30.194;-97.880;2023-07-20T13:02:37;14.30;;;3.60;;
38879;SDS011;25887;30.194;-97.880;2023-07-20T13:05:05;16.80;;;3.88;;
38879;SDS011;25887;30.194;-97.880;2023-07-20T13:07:32;14.25;;;4.07;;
38879;SDS011;25887;30.194;-97.880;2023-07-20T13:10:03;10.30;;;3.45;;
38879;SDS011;25887;30.194;-97.880;2023-07-20T13:12:43;15.68;;;3.00;;
38879;SDS011;25887;30.194;-97.880;2023-07-20T13:15:46;10.75;;;3.80;;
38879;SDS011;25887;30.194;-97.880;2023-07-20T13:18:13;13.23;;;3.30;;
38879;SDS011;25887;30.194;-97.880;2023-07-20T13:20:39;10.73;;;3.70;;
38879;SDS011;25887;30.194;-97.880;2023-07-20T13:23:05;13.40;;;3.13;;
38879;SDS011;25887;30.194;-97.880;2023-07-20T13:25:32;9.98;;;4.22;;
38879;SDS011;25887;30.194;-97.880;2023-07-20T13:27:59;16.42;;;4.28;;
38879;SDS011;25887;30.194;-97.880;2023-07-20T13:30:25;19.25;;;3.75;;
38879;SDS011;25887;30.194;-97.880;2023-07-20T13:32:51;14.30;;;3.60;;
38879;SDS011;25887;30.194;-97.880;2023-07-20T13:35:18;17.75;;;3.90;;
38879;SDS011;25887;30.194;-97.880;2023-07-20T13:37:44;14.07;;;4.85;;
38879;SDS011;25887;30.194;-97.880;2023-07-20T13:40:10;13.55;;;3.63;;
38879;SDS011;25887;30.194;-97.880;2023-07-20T13:42:38;10.05;;;3.47;;
38879;SDS011;25887;30.194;-97.880;2023-07-20T13:45:07;17.23;;;3.92;;
38879;SDS011;25887;30.194;-97.880;2023-07-20T13:47:34;11.32;;;3.00;;
38879;SDS011;25887;30.194;-97.880;2023-07-20T13:50:01;17.00;;;4.03;;
38879;SDS011;25887;30.194;-97.880;2023-07-20T13:52:28;18.42;;;3.42;;
38879;SDS011;25887;30.194;-97.880;2023-07-20T13:54:54;10.43;;;3.35;;
38879;SDS011;25887;30.194;-97.880;2023-07-20T13:57:20;9.27;;;2.70;;
38879;SDS011;25887;30.194;-97.880;2023-07-20T13:59:46;13.32;;;2.97;;
38879;SDS011;25887;30.194;-97.880;2023-07-20T14:02:15;14.60;;;2.40;;
38879;SDS011;25887;30.194;-97.880;2023-07-20T14:04:41;8.90;;;3.40;;
38879;SDS011;25887;30.194;-97.880;2023-07-20T14:07:08;14.30;;;2.80;;
38879;SDS011;25887;30.194;-97.880;2023-07-20T14:09:34;11.20;;;3.15;;
38879;SDS011;25887;30.194;-97.880;2023-07-20T14:12:00;16.42;;;4.00;;
38879;SDS011;25887;30.194;-97.880;2023-07-20T14:14:26;13.27;;;4.03;;
38879;SDS011;25887;30.194;-97.880;2023-07-20T14:16:52;8.15;;;2.72;;
38879;SDS011;25887;30.194;-97.880;2023-07-20T14:19:18;13.05;;;3.15;;
38879;SDS011;25887;30.194;-97.880;2023-07-20T14:21:45;17.65;;;3.25;;
38879;SDS011;25887;30.194;-97.880;2023-07-20T14:24:11;14.15;;;3.33;;
38879;SDS011;25887;30.194;-97.880;2023-07-20T14:26:37;13.40;;;3.17;;
38879;SDS011;25887;30.194;-97.880;2023-07-20T14:29:04;9.13;;;2.85;;
38879;SDS011;25887;30.194;-97.880;2023-07-20T14:31:30;12.13;;;2.97;;
38879;SDS011;25887;30.194;-97.880;2023-07-20T14:33:56;15.32;;;3.08;;
38879;SDS011;25887;30.194;-97.880;2023-07-20T14:36:22;13.43;;;3.47;;
38879;SDS011;25887;30.194;-97.880;2023-07-20T14:38:49;11.27;;;3.15;;
38879;SDS011;25887;30.194;-97.880;2023-07-20T14:41:15;12.88;;;2.88;;
38879;SDS011;25887;30.194;-97.880;2023-07-20T14:43:41;6.82;;;2.63;;
38879;SDS011;25887;30.194;-97.880;2023-07-20T14:46:08;13.23;;;3.13;;
38879;SDS011;25887;30.194;-97.880;2023-07-20T14:48:34;5.32;;;2.35;;
38879;SDS011;25887;30.194;-97.880;2023-07-20T14:51:00;12.95;;;3.45;;
38879;SDS011;25887;30.194;-97.880;2023-07-20T14:53:26;9.98;;;3.30;;
38879;SDS011;25887;30.194;-97.880;2023-07-20T14:55:58;10.15;;;2.90;;
38879;SDS011;25887;30.194;-97.880;2023-07-20T14:58:25;9.90;;;2.65;;
38879;SDS011;25887;30.194;-97.880;2023-07-20T15:00:52;7.35;;;2.47;;